CYMXCYQB

Guest
Details From CYMX - Montreal Mirabel Intl
To CYQB - Quebec Jean Lesage Intl
Flight Number -
Tags Generated
Created
Modified
Stats Distance 130 nm / 241 km
Max Altitude 0 ft / 0 m
Waypoints 2
Social Downloads 0
Likes 0
Share VATSIM

Download

Looking for another format? Having issues loading an existing format? Contact us
Advertisement - Login to hide

Notes

Generated

Route

CYMX CYQB

ID Type Via Altitude Latitude Longitude Leg Dist Tot Dist Heading (true) Name
O CYMX APT - 0 ft / 0 m 45.67083˚ -74.09000˚ - 0 nm - -
O CYQB APT - 0 ft / 0 m 46.78883˚ -71.40294˚ 130 nm 130 nm 58° / 60° -

Altitude Profile

Advertisement - Login to hide

CYMX

Details ICAO CYMX (YMX)
Name Montreal Mirabel Intl
Region Canada
Timezone America/Montreal (UTC-5.0)
Stats Elevation 270 ft / 82 m (AMSL)
Location 45.675556° -74.035903°
Runways 2
Magnetic Variation 14.239° W

METAR

CYMX 182000Z 06005KT 020V080 6SM -SN SCT062 BKN068 M12/M15 A2991 RMK SC3AC4 SLP138

Decode

TAF

TAF TAF AMD CYMX 181919Z 1819/1918 06006KT 6SM -SN OVC050 TEMPO 1819/1904 21/2SM -SN SCT010 OVC030 FM190400 VRB03KT 6SM -SN OVC008 FM191100 06006KT 1SM -SN OVC006 PROB30 1911/1916 3/4SM -SN -FZRA BR OVC003 FM191600 06005KT 3SM -SN -FZDZ OVC003 RMK NXT FCST BY 190000Z

Decode

Departure Runways

ID Width Length Bearing (true) Bearing (mag) Surface Threshold Offset Overrun Length
06 200 ft / 61 m 11,958 ft / 3,645 m 45.28° 59.52° Concrete 0 ft / 0 m 0 ft / 0 m
11 200 ft / 61 m 11,954 ft / 3,644 m 98.27° 112.51° Concrete 0 ft / 0 m 0 ft / 0 m
24 200 ft / 61 m 11,958 ft / 3,645 m 225.30° 239.54° Concrete 0 ft / 0 m 0 ft / 0 m
29 200 ft / 61 m 11,954 ft / 3,644 m 278.30° 292.54° Concrete 0 ft / 0 m 0 ft / 0 m

CYQB

Details ICAO CYQB (YQB)
Name Quebec Jean Lesage Intl
Region Canada
Timezone America/Montreal (UTC-5.0)
Stats Elevation 244 ft / 74 m (AMSL)
Location 46.789458° -71.392764°
Runways 2
Magnetic Variation 15.836° W

METAR

CYQB 182000Z 00000KT 6SM -SN BKN038 BKN100 M11/M16 A2995 RMK SC7AC1 AC TR SLP150

Decode

TAF

TAF CYQB 181743Z 1818/1918 VRB03KT P6SM FEW020 OVC060 TEMPO 1818/1820 5SM -SHSN FM182100 VRB03KT P6SM BKN020 OVC040 FM190400 VRB03KT P6SM -SN OVC010 FM191200 VRB03KT 2SM -SN OVC010 RMK NXT FCST BY 190000Z

Decode

Destination Runways

ID Width Length Bearing (true) Bearing (mag) Surface Threshold Offset Overrun Length
06 150 ft / 46 m 9,020 ft / 2,749 m 44.00° 59.84° Asphalt 0 ft / 0 m 0 ft / 0 m
12 150 ft / 46 m 5,678 ft / 1,731 m 97.58° 113.42° Asphalt 0 ft / 0 m 0 ft / 0 m
24 150 ft / 46 m 9,020 ft / 2,749 m 224.02° 239.86° Asphalt 0 ft / 0 m 0 ft / 0 m
30 150 ft / 46 m 5,678 ft / 1,731 m 277.60° 293.44° Asphalt 0 ft / 0 m 0 ft / 0 m

Approach Navaids

Runway Type Ident Frequency Range Bearing (true) Bearing (mag) Slope Elevation
06 Localiser IQB 109.50 MHz 18 nm / 33 km 44.33° 60.17° - 197 ft / 60 m (AMSL)
06 Glidescope IQB 109.50 MHz 18 nm / 33 km 42.00° 57.84° 3.00° 233 ft / 71 m (AMSL)

Popular Alternatives